arxmliv
arxmliv build tool
 
KWARC group
LaTeXML
About
   
 

Detailed info

Back to Homepage

List of missing_macros

No. Date Filename num_warningnum_errornum_xmargok_xmargnum_xmathok_xmathMissing macros
15601 2013-04-13 20:47:43 /1012/1012.0720 280000[\firstsection, \editors, \affiliation, \jname, \pagerange, \keywords, \volume, \pubyear]; 1 missing file[iaus.cls].
15602 2013-04-13 20:47:37 /1012/1012.0703 0120000[\Issue, \inst, \Month, \Reviseddate, \Receiveddate, \Volume, \keywords, \pagespan, \Dateposted, \Year, \Accepteddate, {acknowledgement}].
15603 2013-04-13 20:46:59 /1012/1012.0712 340000[\ShortTitle, \email, \FullConference, \speaker]; 1 missing file[PoS.cls].
15604 2013-04-13 20:46:37 /1012/1012.0694 7200000[\Hboson, \abstracttext, \mH, \Wboson, \mW, \graphicspath, \includegraphics, \draftversion, \Wln, \pT, \Zboson, \MET]; 2 missing files[atlasnote.cls, atlasphysics.sty].
15605 2013-04-13 20:45:59 /1012/1012.0669 1350000[\mathds, Align, \xymatrix, \ar]; 1 missing file[xy.sty].
15606 2013-04-13 20:45:50 /1012/1012.0674 7280000[{lemma}, {algorithm}, {theorem}, \address, \email, {corollary}, {problem}, {proof}]; 1 missing file[jac.cls].
15607 2013-04-13 20:45:47 /1012/1012.0692 210000[\linenumbers].
15608 2013-04-13 20:45:31 /1012/1012.0677 0140000[\@close@row].
15609 2013-04-13 20:45:14 /1012/1012.0640 930000[\title, \date, \author].
15610 2013-04-13 20:45:00 /1012/1012.0649 65110000[\sout].
15611 2013-04-13 20:44:48 /1012/1012.0655 25110000[\kword, \abst, \inst, \recdate, \citen]; 2 missing files[jpsj3.cls, slashbox.sty].
15612 2013-04-13 20:44:43 /1012/1012.0671 1510000[{IEEEproof}]; 1 missing file[IEEEtran.cls].
15613 2013-04-13 20:44:31 /1012/1012.0650 7140000[\extrasenglish, \geometry, \dateenglish, \captionsenglish].
15614 2013-04-13 20:44:25 /1012/1012.0672 130000[\address, \email, \keywords]; 1 missing file[jac.cls].
15615 2013-04-13 20:44:16 /1012/1012.0660 960000[\jnltitlelogo, \jid, \dochead, \runauth, \journalname]; 1 missing file[ecrc.sty].
15616 2013-04-13 20:43:59 /1012/1012.0637 1620000[\@end@institute]; 1 missing file[type1cm.sty].
15617 2013-04-13 20:43:58 /1012/1012.0648 830000[{theacknowledgments}, \layoutstyle, \classification].
15618 2013-04-13 20:43:46 /1012/1012.0635 1250000[Align, \xymatrix, \ar]; 2 missing files[xy.sty, epsbox.sty].
15619 2013-04-13 20:43:33 /1012/1012.0642 720000[\@end@institute]; 1 missing file[type1cm.sty].
15620 2013-04-13 20:43:18 /1012/1012.0617 210000[\icarus].
15621 2013-04-13 20:43:12 /1012/1012.0628 1010000[\ttarXiv].
15622 2013-04-13 20:43:09 /1012/1012.0625 9140000[\apj, \citep, \pasj, \aap, \altaffilmark, \Received, \apjs, \mnras, \Accepted, \FigureFile, \citet, \altaffiltext, \SetRunningHead, \KeyWords]; 1 missing file[pasj00.cls].
15623 2013-04-13 20:42:49 /1012/1012.0601 2050000[{comment}, \partitle].
15624 2013-04-13 20:42:46 /1012/1012.0558 5490000[\firstreader, \prefacesection, \thirdreader, \Sun, \beforepreface, \afterpreface, \dept, \principaladviser, \secondreader].
15625 2013-04-13 20:42:40 /1012/1012.0604 220000[\rrbracket, \llbracket].
15626 2013-04-13 20:42:36 /1012/1012.0614 340000[\jid, \runauth, \journalname]; 1 missing file[ecrc.sty].
15627 2013-04-13 20:42:31 /1012/1012.0603 120000[\address, \runningtitle]; 1 missing file[eas.cls].
15628 2013-04-13 20:42:26 /1012/1012.0615 0210000[\affil, \citep, \tableline, \plotfiddle, \resetcounters, \citet, \tablenotemark, \acknowledgements]; 1 missing file[asp2010.sty].
15629 2013-04-13 20:42:19 /1012/1012.0605 120000[\address, \runningtitle]; 1 missing file[eas.cls].
15630 2013-04-13 20:42:08 /1012/1012.0612 6610000[\ead].
15631 2013-04-13 20:42:07 /1012/1012.0538 12950000[Align, {comment}, \xymatrix, \ar]; 1 missing file[xy.sty].
15632 2013-04-13 20:41:36 /1012/1012.0600 120000[\address, \runningtitle]; 1 missing file[eas.cls].
15633 2013-04-13 20:41:31 /1012/1012.0599 110000[\subfloat]; 1 missing file[IEEEtran.cls].
15634 2013-04-13 20:41:20 /1012/1012.0574 3230000[\pdfpageheight, \icarus, \pdfpagewidth].
15635 2013-04-13 20:41:18 /1012/1012.0586 110000[\@end@institute].
15636 2013-04-13 20:41:13 /1012/1012.0584 290000[\firstsection, \gtrsim, \editors, \affiliation, \jname, \pagerange, \keywords, \volume, \pubyear]; 1 missing file[iaus.cls].
15637 2013-04-13 20:41:08 /1012/1012.0587 440000[\extrasenglish, \geometry, \dateenglish, \captionsenglish].
15638 2013-04-13 20:41:02 /1012/1012.0573 1730000[\tablecomments]; 2 missing files[pdflscape.sty, deluxetable.sty].
15639 2013-04-13 20:40:42 /1012/1012.0588 1850000[\includegraphics, \ShortTitle, \email, \FullConference, \speaker]; 1 missing file[PoS.cls].
15640 2013-04-13 20:40:32 /1012/1012.0566 92630000[{sidewaystable*}].
15641 2013-04-13 20:40:24 /1012/1012.0525 76160000[Align, \xymatrix, \ar]; 1 missing file[xy.sty].
15642 2013-04-13 20:40:11 /1012/1012.0576 1080000[\includegraphics, \ShortTitle, \email, \FullConference, \speaker]; 1 missing file[PoS.cls].
15643 2013-04-13 20:40:07 /1012/1012.0577 0160000[\affil, \plotone, \citep, \tableline, \citet, \plotfiddle, \resetcounters]; 1 missing file[asp2010.sty].
15644 2013-04-13 20:39:48 /1012/1012.0530 1169120000[{bigcenter}]; 1 missing file[bigcenter.sty].
15645 2013-04-13 20:39:39 /1012/1012.0567 030000[\extrasenglish, \dateenglish, \captionsenglish].
15646 2013-04-13 20:39:37 /1012/1012.0570 030000[\extrasenglish, \dateenglish, \captionsenglish].
15647 2013-04-13 20:39:23 /1012/1012.0571 1100000[\editors, \affiliation, \jname, \pagerange, \volume, \pubyear]; 1 missing file[iaus.cls].
15648 2013-04-13 20:39:19 /1012/1012.0554 28350000[\pt, \FullConference, \ra, \et, \includegraphics, \ShortTitle, \gev, \email, \inb, \twoboxes, \cm, \tev, \progname, \speaker]; 2 missing files[sssmacros.sty, PoS.cls].
15649 2013-04-13 20:39:17 /1012/1012.0556 410000[\CS].
15650 2013-04-13 20:39:09 /1012/1012.0560 470000[\ocite].
15651 2013-04-13 20:39:06 /1012/1012.0561 010000[{comment}].
15652 2013-04-13 20:39:05 /1012/1012.0557 020000[\pdfpkresolution].
15653 2013-04-13 20:38:32 /1012/1012.0513 6110000[\psfrag].
15654 2013-04-13 20:38:27 /1012/1012.0549 3660000[{acknowledgments}, \arxivnumber, \affiliation, \emailAdd, \keywords]; 1 missing file[jcappub.sty].
15655 2013-04-13 20:38:23 /1012/1012.0535 25190000[\layoutstyle, \captiondelim, \xy, \endxy, \precaption, \ar, \classification, \indentcaption, \captionnamefont, \save, \cir, \xymatrix, \POS, \captiontitlefont, Align, \restore, \dir]; 2 missing files[xy.sty, ccaption.sty].
15656 2013-04-13 20:37:58 /1012/1012.0537 1820000[{\alph{temp}theorem}]; 1 missing file[amsaddr.sty].
15657 2013-04-13 20:37:40 /1012/1012.0527 2640000[\Vertex, \ArrowLine, \DashLine, \Gluon].
15658 2013-04-13 20:37:27 /1012/1012.0542 0250000[\affil, \plotone, \tableline, \acknowledgements, \resetcounters, \plottwo]; 1 missing file[asp2010.sty].
15659 2013-04-13 20:37:18 /1012/1012.0503 2230000[\tnoteref, \tnotetext, \cortext].
15660 2013-04-13 20:37:10 /1012/1012.0516 19100000[\pscurve, {pspicture}, \rput, \psline, {psinputs}]; 4 missing files[pst-coil.sty, pst-fill.sty, pgf.sty, pdftricks.sty].
15661 2013-04-13 20:37:06 /1012/1012.0519 8940000[\lambdabar]; 1 missing file[apjfonts.sty].
15662 2013-04-13 20:37:01 /1012/1012.0496 10520000[\IR]; 1 missing file[boxedminipage.sty].
15663 2013-04-13 20:36:20 /1012/1012.0522 3270000[\eIf, {algorithm}, \SetKwInOut, \ForEach, \SetAlgoNoLine, \FuncSty, \For, \Output, \KwTo, \Return, \BlankLine, \Input, \nllabel].
15664 2013-04-13 20:36:15 /1012/1012.0446 44100000[\endxy, Align, \xyoption, \psfrag, \xymatrix, \xy, \ar]; 1 missing file[xy.sty].
15665 2013-04-13 20:36:11 /1012/1012.0521 340000[{theacknowledgments}, \layoutstyle, \classification]; 1 missing file[{aipcheck}].
15666 2013-04-13 20:36:03 /1012/1012.0498 6720000[{prop}, \iid].
15667 2013-04-13 20:36:02 /1012/1012.0486 3850000[Align, @ , \xymatrix, \ar]; 1 missing file[xy.sty].
15668 2013-04-13 20:36:01 /1012/1012.0505 130000[\layoutstyle, \classification]; 1 missing file[{aipcheck}].
15669 2013-04-13 20:35:50 /1012/1012.0506 020000[\ack, \ead].
15670 2013-04-13 20:35:46 /1012/1012.0477 4150000[\endfoot, {sidewaystable}, Align, \endhead, \endfirsthead, {longtable}]; 1 missing file[aalongtable.sty].
15671 2013-04-13 20:35:32 /1012/1012.0511 490000[\includegraphics, \ShortTitle, \resetlinenumber, \email, \FullConference, \speaker]; 1 missing file[PoS.cls].
15672 2013-04-13 20:35:25 /1012/1012.0494 0170000[\inst, \accepted, \Month, \publonline, \sun, \email, \titlerunning, \fnmsep, \authorrunning, \received, \Issue, \Yearsubmission, \institute, \Yearpublication, \Volume, \Pagespan, \acknowledgements].
15673 2013-04-13 20:35:24 /1012/1012.0495 0220000[\apj, \citep, \earth, \aap, \altaffilmark, \mnras, \pasp, \plotone, \altaffiltext, \citet, \acknowledgements, \plottwo]; 1 missing file[asp2006.sty].
15674 2013-04-13 20:35:17 /1012/1012.0499 010000[\ead].
15675 2013-04-13 20:35:14 /1012/1012.0500 2220000[\affil, \mnras, \apj, \pasp, \plotone, \acknowledgements, \nat, \aap, \plottwo]; 1 missing file[asp2006.sty].
15676 2013-04-13 20:35:13 /1012/1012.0484 030000[\extrasenglish, \dateenglish, \captionsenglish].
15677 2013-04-13 20:35:06 /1012/1012.0501 020000[\ack, \ead].
15678 2013-04-13 20:34:58 /1012/1012.0478 3020000[\midrule, \bottomrule].
15679 2013-04-13 20:34:55 /1012/1012.0469 5130000[Align, \xymatrix, \ar]; 10 missing files[xycurve.sty, xymatrix.sty, xyline.sty, xyarrow.sty, xycmtip.sty, xycolor.sty, xyrotate.sty, xy.sty, xyframe.sty, xygraph.sty].
15680 2013-04-13 20:34:54 /1012/1012.0488 120000[\ack, \ead].
15681 2013-04-13 20:34:48 /1012/1012.0480 20210000[Align, {subeqnarray}].
15682 2013-04-13 20:34:29 /1012/1012.0418 89270000[Align, \xymatrix, \ar]; 9 missing files[xycurve.sty, xymatrix.sty, xyline.sty, xyarrow.sty, xycmtip.sty, xycolor.sty, xyrotate.sty, xyframe.sty, xygraph.sty].
15683 2013-04-13 20:34:23 /1012/1012.0471 1610000[{comment}].
15684 2013-04-13 20:34:23 /1012/1012.0482 910000[\theappendix].
15685 2013-04-13 20:34:09 /1012/1012.0481 1280000[\ShortTitle, \email, \FullConference, \speaker]; 1 missing file[PoS.cls].
15686 2013-04-13 20:33:51 /1012/1012.0454 17580000[Align, \prettyref, \newrefformat, \xymatrix, \ar]; 1 missing file[xy.sty].
15687 2013-04-13 20:33:26 /1012/1012.0456 140000[\ShortTitle, \email, \FullConference, \speaker]; 1 missing file[PoS.cls].
15688 2013-04-13 20:33:25 /1012/1012.0455 1140000[\PACSes, \BY, \idest, \inst, \SAME, \atque, \acknowledgments, \PACSit, \from, \ETC, \IN, \shorttitle, \instlist, \etal]; 1 missing file[mystyle.cls].
15689 2013-04-13 20:33:22 /1012/1012.0452 930000[\IEEEmembership, \appendices, {proof}]; 1 missing file[IEEEtran.cls].
15690 2013-04-13 20:33:12 /1012/1012.0450 060000[\extrasenglish, \dateenglish, \captionsenglish]; 1 missing file[esint.sty].
15691 2013-04-13 20:32:59 /1012/1012.0428 39720000[Align, {Beqnarray*}, \xymatrix, \ar]; 1 missing file[xy.sty].
15692 2013-04-13 20:32:54 /1012/1012.0447 110000[\ead].
15693 2013-04-13 20:32:50 /1012/1012.0448 2040000[{theacknowledgments}, \layoutstyle, \classification]; 1 missing file[{aipcheck}].
15694 2013-04-13 20:32:40 /1012/1012.0449 220000[\@end@institute]; 1 missing file[type1cm.sty].
15695 2013-04-13 20:31:57 /1012/1012.0440 110000[\ead].
15696 2013-04-13 20:31:30 /1012/1012.0404 3010000[\geometry].
15697 2013-04-13 20:31:19 /1012/1012.0224 66730000[{rotate}]; 2 missing files[proc.sty, microtype.sty].
15698 2013-04-13 20:31:17 /1012/1012.0415 260000[\jnltitlelogo, \jid, \dochead, \runauth, \journalname]; 1 missing file[ecrc.sty].
15699 2013-04-13 20:31:15 /1012/1012.0412 1330000[\bibentry]; 1 missing file[bibentry.sty].
15700 2013-04-13 20:31:01 /1012/1012.0397 13750000[\IEEEPARstart, {keywords}, \IEEEmembership]; 1 missing file[IEEEtran.cls].
15701 2013-04-13 20:30:58 /1012/1012.0358 1910000[\maxovaldiam].
15702 2013-04-13 20:30:56 /1012/1012.0407 710000[\theappendix].
15703 2013-04-13 20:30:46 /1012/1012.0402 14150000[\abs, \Span, \DeclarePairedDelimiter, \inpd, \norm]; 2 missing files[rmpage.sty, mathtools.sty].
15704 2013-04-13 20:30:31 /1012/1012.0408 1070000[\includegraphics, \ShortTitle, {floatingfigure}, \email, \FullConference, \speaker]; 1 missing file[PoS.cls].
15705 2013-04-13 20:30:23 /1012/1012.0342 18630000[\bibselect, \geometry].
15706 2013-04-13 20:30:16 /1012/1012.0410 630000[\ShortTitle, \email, \FullConference]; 1 missing file[PoS.cls].
15707 2013-04-13 20:29:56 /1012/1012.0401 240000[\ocis, \address, \email]; 1 missing file[osajnl2.sty].
15708 2013-04-13 20:29:55 /1012/1012.0384 1480000[\IEEEauthorblockA, \IEEEauthorblockN, {comment}, \IEEEpeerreviewmaketitle, \IEEEoverridecommandlockouts, \ifCLASSINFOpdf]; 1 missing file[IEEEtran.cls].
15709 2013-04-13 20:29:35 /1012/1012.0367 8520000[\IEEEauthorblockA, \IEEEauthorblockN]; 1 missing file[IEEEtran.cls].
15710 2013-04-13 20:29:31 /1012/1012.0391 580000[\institute, \frontmatter, \tocauthor, \proof, {keywordname}, \email, \titlerunning, \authorrunning]; 1 missing file[llncs1.cls].
15711 2013-04-13 20:29:23 /1012/1012.0373 130000[\theappendix].
15712 2013-04-13 20:29:18 /1012/1012.0389 610000[\tsum].
15713 2013-04-13 20:29:07 /1012/1012.0376 010000[\ron].
15714 2013-04-13 20:28:33 /1012/1012.0377 0150000[\affil, \citep, \tableline, \resetcounters, \plotone, \arcsec, \citet, \acknowledgements]; 1 missing file[asp2010.sty].
15715 2013-04-13 20:28:31 /1012/1012.0353 510000[\theappendix].
15716 2013-04-13 20:28:13 /1012/1012.0337 2670000[{SCfigure}]; 2 missing files[afterpage.sty, sidecap.sty].
15717 2013-04-13 20:27:55 /1012/1012.0357 2440000[Align, \xymatrix, \ar]; 1 missing file[xy.sty].
15718 2013-04-13 20:27:52 /1012/1012.0343 020000[\@end@institute]; 1 missing file[aps-bibstyle.sty].
15719 2013-04-13 20:27:48 /1012/1012.0351 940000[\subfloat, {theorem}, \subref, {proof}].
15720 2013-04-13 20:27:34 /1012/1012.0362 6100000[\includegraphics, \catchline, {history}, \revised, \received].
15721 2013-04-13 20:27:30 /1012/1012.0344 1140000[\opencite, \citeyear, \surname, \institute, \runningtitle, {opening}, {article}, \keywords, Align, \sep, \citeauthor, \runningauthor, \inlinecite]; 2 missing files[spr-sola-addons.sty, SolarPhysics.cls].
15722 2013-04-13 20:27:27 /1012/1012.0347 030000[\extrasenglish, \dateenglish, \captionsenglish].
15723 2013-04-13 20:27:22 /1012/1012.0345 130000[{theacknowledgments}, \layoutstyle, \classification].
15724 2013-04-13 20:27:02 /1012/1012.0333 330000[{theacknowledgments}, \layoutstyle, \classification].
15725 2013-04-13 20:26:33 /1012/1012.0341 270000[\includegraphics, \ShortTitle, \email, \FullConference, \speaker]; 1 missing file[PoS.cls].
15726 2013-04-13 20:26:21 /1012/1012.0330 050000[\extrasenglish, \unit, \dateenglish, \captionsenglish]; 1 missing file[esint.sty].
15727 2013-04-13 20:26:21 /1012/1012.0332 5010000[\theappendix].
15728 2013-04-13 20:26:16 /1012/1012.0304 120000[\tmspace, \mathaccentV].
15729 2013-04-13 20:26:16 /1012/1012.0325 13350000[\includegraphics, \ShortTitle, \email, \FullConference, \speaker]; 1 missing file[PoS.cls].
15730 2013-04-13 20:26:11 /1012/1012.0321 010000[\cortext].
15731 2013-04-13 20:26:08 /1012/1012.0331 190000[{addendum}, {affiliations}]; 1 missing file[nature.cls].
15732 2013-04-13 20:25:48 /1012/1012.0314 0130000[\affil, \plotone, \citep, \citet, \acknowledgements, \resetcounters]; 1 missing file[asp2010.sty].
15733 2013-04-13 20:25:31 /1012/1012.0296 210000[{comment}].
15734 2013-04-13 20:25:16 /1012/1012.0293 710000[\slashed].
15735 2013-04-13 20:25:12 /1012/1012.0266 29440000[\maxsecnumdepth, \cleartorecto, {sidewaystable}, \thechapter, \mainmatter, \backmatter, \appendixpage, \cleartoverso, \epigraph, \chapterstyle, \subbottom, \frontmatter, {sidewaysfigure}, \@currentID, \chaptitlefont, {titlingpage}, \newsubfloat]; 1 missi
15736 2013-04-13 20:25:11 /1012/1012.0297 1130000[\abovecaptionskip, \belowcaptionskip].
15737 2013-04-13 20:24:45 /1012/1012.0310 020000[\@end@institute]; 1 missing file[type1cm.sty].
15738 2013-04-13 20:24:42 /1012/1012.0309 480000[\@ifnum, \filename, \@cite@star@sw, \true@sw, \false@sw, \@ifx@empty, \@booleanfalse]; 1 missing file[\filename.aux].
15739 2013-04-13 20:24:36 /1012/1012.0291 2650000[Align, \xymatrix, \ar]; 2 missing files[mathtools.sty, xy.sty].
15740 2013-04-13 20:24:12 /1012/1012.0265 26530000[\CN].
15741 2013-04-13 20:23:34 /1012/1012.0257 3430000[\geometry].
15742 2013-04-13 20:23:27 /1012/1012.0290 7140000[\Abstract, \ArticleName, \ShortArticleName, \FirstPageHeading, \Address, \pdfbookmark, \LastPageEnding, \Classification, \ArticleDates, \Author, \Email, \AuthorNameForHeading, \URLaddress, \Keywords].
15743 2013-04-13 20:23:18 /1012/1012.0286 030000[\extrasenglish, \dateenglish, \captionsenglish].
15744 2013-04-13 20:22:43 /1012/1012.0273 5140000[\includegraphics, \ShortTitle, \email, \FullConference, \speaker]; 1 missing file[PoS.cls].
15745 2013-04-13 20:22:37 /1012/1012.0194 7010000[\mathds].
15746 2013-04-13 20:22:34 /1012/1012.0279 3240000[\extrasenglish, \geometry, \dateenglish, \captionsenglish].
15747 2013-04-13 20:22:26 /1012/1012.0277 330000[\editors, \affiliation, \jname]; 1 missing file[iaus.cls].
15748 2013-04-13 20:22:05 /1012/1012.0268 810000[\geometry].
15749 2013-04-13 20:21:47 /1012/1012.0240 115650000[\cbezier, \midrule, \toprule, \xygraph, \bottomrule]; 2 missing files[pict2e.sty, xy.sty].
15750 2013-04-13 20:21:47 /1012/1012.0246 830000[\runningauthor, \institute, \runningtitle]; 1 missing file[FBSart.cls].
15751 2013-04-13 20:21:33 /1012/1012.0256 120000[\subfloat]; 1 missing file[subfloat.sty].
15752 2013-04-13 20:21:31 /1012/1012.0259 820000[\subfloat]; 1 missing file[subfloat.sty].
15753 2013-04-13 20:21:30 /1012/1012.0253 490000[\includegraphics, \ShortTitle, \email, \FullConference, \pos, \speaker]; 1 missing file[PoS.cls].
15754 2013-04-13 20:21:20 /1012/1012.0258 540000[\ShortTitle, \email, \FullConference, \speaker]; 1 missing file[PoS.cls].
15755 2013-04-13 20:21:20 /1012/1012.0261 1340000[\ShortTitle, \email, \FullConference, \speaker]; 1 missing file[PoS.cls].
15756 2013-04-13 20:21:06 /1012/1012.0245 420000[\layoutstyle, \classification].
15757 2013-04-13 20:21:05 /1012/1012.0237 8340000[{lemma}, \ZZ, \bangle, \gr, {theo}, \Soc, {example}, \K, \Ann, \vphi, \Lie, {conjecture}, \coloneq, \USoc, {remark}, \CC, \LSoc, {proposition}, \Der, {definition}, \Aut, {corollary}, \GL, \NN, \ssl]; 1 missing file[my.sty].
15758 2013-04-13 20:21:02 /1012/1012.0248 860000[\includegraphics, \ShortTitle, \email, \FullConference, \speaker]; 1 missing file[PoS.cls].
15759 2013-04-13 20:20:47 /1012/1012.0252 060000[\cortext, \jid, \dochead, \runauth, \journalname]; 1 missing file[ecrc.sty].
15760 2013-04-13 20:20:46 /1012/1012.0233 060000[\jnltitlelogo, \jid, \dochead, \runauth, \journalname]; 1 missing file[ecrc.sty].
15761 2013-04-13 20:20:36 /1012/1012.0226 620000[{onecolabstract}]; 1 missing file[abstract.sty].
15762 2013-04-13 20:20:21 /1012/1012.0230 120000[\@end@institute].
15763 2013-04-13 20:20:15 /1012/1012.0242 850000[\includegraphics, \ShortTitle, \email, \FullConference, \speaker]; 1 missing file[PoS.cls].
15764 2013-04-13 20:20:13 /1012/1012.0225 040000[\theappendix, \ocis, \address, \email].
15765 2013-04-13 20:20:08 /1012/1012.0232 030000[\extrasenglish, \dateenglish, \captionsenglish].
15766 2013-04-13 20:19:58 /1012/1012.0213 040000[Align, \xymatrix, \ar]; 1 missing file[xy.sty].
15767 2013-04-13 20:19:45 /1012/1012.0217 6130000[\includegraphics, \ShortTitle, \email, \FullConference, \speaker]; 1 missing file[PoS.cls].
15768 2013-04-13 20:19:42 /1012/1012.0218 480000[\editors, \affiliation, \keywords, \volume, \pagerange, \jname, \pubyear, \etal]; 1 missing file[iaus.cls].
15769 2013-04-13 20:19:37 /1012/1012.0175 710000[\rTo].
15770 2013-04-13 20:19:35 /1012/1012.0205 310000[\midrule].
15771 2013-04-13 20:19:32 /1012/1012.0156 13050000[\title, \midrule, \toprule, \author, \bottomrule].
15772 2013-04-13 20:19:32 /1012/1012.0221 010000[\ead].
15773 2013-04-13 20:19:19 /1012/1012.0206 580000[\@affiliation].
15774 2013-04-13 20:19:16 /1012/1012.0193 230000[\layoutstyle, \classification]; 1 missing file[preview.sty].
15775 2013-04-13 20:19:01 /1012/1012.0170 1830000[{spreadlines}]; 2 missing files[hyper.sty, mathtools.sty].
15776 2013-04-13 20:19:01 /1012/1012.0186 5240000[\includegraphics, \negthickspace, \institute, \text].
15777 2013-04-13 20:19:01 /1012/1012.0188 930000[\theappendix].
15778 2013-04-13 20:18:59 /1012/1012.0200 440000[\ShortTitle, \email, \FullConference, \speaker]; 1 missing file[PoS.cls].
15779 2013-04-13 20:18:50 /1012/1012.0198 0210000[\affil, \plotone, \citep, \citet, \resetcounters, \plottwo]; 1 missing file[asp2010.sty].
15780 2013-04-13 20:18:42 /1012/1012.0185 120000[\@end@institute]; 1 missing file[type1cm.sty].
15781 2013-04-13 20:18:36 /1012/1012.0181 40150000[\tabnote, {keywords}, \subfigure, \doi, \jvol, \issn, \tbl, \jyear, \colrule, \botrule, \jnum, \toprule, \issnp]; 3 missing files[gensymb.sty, gamdie.cls, bibentry.sty].
15782 2013-04-13 20:18:32 /1012/1012.0187 020000[\layoutstyle, \classification].
15783 2013-04-13 20:18:31 /1012/1012.0189 030000[\extrasenglish, \dateenglish, \captionsenglish].
15784 2013-04-13 20:18:26 /1012/1012.0192 1140000[\ShortTitle, \email, \FullConference, \speaker]; 1 missing file[PoS.cls].
15785 2013-04-13 20:18:05 /1012/1012.0177 050000[\jnltitlelogo, \jid, \runauth, \journalname]; 1 missing file[ecrc.sty].
15786 2013-04-13 20:17:55 /1012/1012.0163 010000[\theappendix].
15787 2013-04-13 20:17:54 /1012/1012.0167 910000[\subfloat].
15788 2013-04-13 20:17:50 /1012/1012.0164 210000[\subfloat].
15789 2013-04-13 20:17:45 /1012/1012.0158 5660000[\email, \midrule, \institute, \toprule, \bottomrule, \keywords]; 1 missing file[jca.cls].
15790 2013-04-13 20:17:40 /1012/1012.0165 120000[Align, \biboptions].
15791 2013-04-13 20:17:30 /1012/1012.0153 1150000[{acknowledgments}, {keywords}, \iffontfound, \ifCUPmtlplainloaded, \affiliation, \checkfont]; 1 missing file[jfm.cls].
15792 2013-04-13 20:17:13 /1012/1012.0169 230000[\mr, \br, \ead].
15793 2013-04-13 20:17:04 /1012/1012.0155 1110000[\ead].
15794 2013-04-13 20:16:51 /1012/1012.0159 530000[\subfloat].
15795 2013-04-13 20:16:49 /1012/1012.0140 1510000[\young].
15796 2013-04-13 20:16:40 /1012/1012.0161 240000[\jid, \runauth, \journalname]; 1 missing file[ecrc.sty].
15797 2013-04-13 20:16:38 /1012/1012.0152 1440000[\ShortTitle, \email, \FullConference, \speaker]; 1 missing file[PoS.cls].
15798 2013-04-13 20:16:21 /1012/1012.0133 3630000[\layoutstyle, \classification]; 1 missing file[{aipcheck.tex}].
15799 2013-04-13 20:16:19 /1012/1012.0137 41610000[\FIGURE, \includegraphics, \ShortTitle, \lesssim, \FullConference, \speaker]; 1 missing file[PoS.cls].
15800 2013-04-13 20:16:08 /1012/1012.0135 040000[\psfig, \bodymatter, \keywords]; 1 missing file[ws.sty].
<<< >>>

[0] [200] [400] [600] [800] [1000] [1200] [1400] [1600] [1800] [2000] [2200] [2400] [2600] [2800] [3000] [3200] [3400] [3600] [3800] [4000] [4200] [4400] [4600] [4800] [5000] [5200] [5400] [5600] [5800] [6000] [6200] [6400] [6600] [6800] [7000] [7200] [7400] [7600] [7800] [8000] [8200] [8400] [8600] [8800] [9000] [9200] [9400] [9600] [9800] [10000] [10200] [10400] [10600] [10800] [11000] [11200] [11400] [11600] [11800] [12000] [12200] [12400] [12600] [12800] [13000] [13200] [13400] [13600] [13800] [14000] [14200] [14400] [14600] [14800] [15000] [15200] [15400] [15600] [15800] [16000] [16200] [16400] [16600] [16800] [17000] [17200] [17400] [17600] [17800] [18000] [18200] [18400] [18600] [18800] [19000] [19200] [19400] [19600] [19800] [20000] [20200] [20400] [20600] [20800] [21000] [21200] [21400] [21600] [21800] [22000] [22200] [22400] [22600] [22800] [23000] [23200] [23400] [23600] [23800] [24000] [24200] [24400] [24600] [24800] [25000] [25200] [25400] [25600] [25800] [26000] [26200] [26400] [26600] [26800] [27000] [27200] [27400] [27600] [27800] [28000] [28200] [28400] [28600] [28800] [29000] [29200] [29400] [29600] [29800] [30000] [30200] [30400] [30600] [30800] [31000] [31200] [31400] [31600] [31800] [32000] [32200] [32400] [32600] [32800] [33000] [33200] [33400] [33600] [33800] [34000] [34200] [34400] [34600] [34800] [35000] [35200] [35400] [35600] [35800] [36000] [36200] [36400] [36600] [36800] [37000] [37200] [37400] [37600] [37800] [38000] [38200] [38400] [38600] [38800] [39000] [39200] [39400] [39600] [39800] [40000] [40200] [40400] [40600] [40800] [41000] [41200] [41400] [41600] [41800] [42000] [42200] [42400] [42600] [42800] [43000] [43200] [43400] [43600] [43800] [44000] [44200] [44400] [44600] [44800] [45000] [45200] [45400] [45600] [45800] [46000] [46200] [46400] [46600] [46800] [47000] [47200] [47400] [47600] [47800] [48000] [48200] [48400] [48600] [48800] [49000] [49200] [49400] [49600] [49800] [50000] [50200] [50400] [50600] [50800] [51000] [51200] [51400] [51600] [51800] [52000] [52200] [52400] [52600] [52800] [53000] [53200] [53400] [53600] [53800] [54000] [54200] [54400] [54600] [54800] [55000] [55200] [55400] [55600] [55800] [56000] [56200] [56400] [56600] [56800] [57000] [57200] [57400] [57600] [57800] [58000] [58200] [58400] [58600] [58800] [59000] [59200] [59400] [59600] [59800] [60000] [60200] [60400] [60600] [60800] [61000] [61200] [61400] [61600] [61800] [62000] [62200] [62400] [62600] [62800] [63000] [63200] [63400] [63600] [63800] [64000] [64200] [64400] [64600] [64800] [65000] [65200] [65400] [65600] [65800] [66000] [66200] [66400] [66600] [66800] [67000] [67200] [67400] [67600] [67800] [68000] [68200] [68400] [68600] [68800] [69000] [69200] [69400] [69600] [69800] [70000] [70200] [70400] [70600] [70800] [71000] [71200] [71400] [71600] [71800] [72000] [72200] [72400] [72600] [72800] [73000] [73200] [73400] [73600] [73800] [74000] [74200] [74400] [74600] [74800] [75000] [75200] [75400] [75600] [75800] [76000] [76200] [76400] [76600] [76800] [77000] [77200] [77400] [77600] [77800] [78000] [78200] [78400] [78600] [78800] [79000] [79200] [79400] [79600] [79800] [80000] [80200] [80400] [80600] [80800] [81000] [81200] [81400] [81600] [81800] [82000] [82200] [82400] [82600] [82800] [83000] [83200] [83400] [83600] [83800] [84000] [84200] [84400] [84600] [84800] [85000] [85200] [85400] [85600] [85800] [86000] [86200] [86400] [86600] [86800] [87000] [87200] [87400] [87600] [87800] [88000] [88200] [88400] [88600] [88800] [89000] [89200] [89400] [89600] [89800] [90000] [90200] [90400] [90600] [90800] [91000] [91200] [91400] [91600] [91800] [92000] [92200] [92400] [92600] [92800] [93000] [93200] [93400] [93600] [93800] [94000] [94200] [94400] [94600] [94800] [95000] [95200] [95400] [95600] [95800] [96000] [96200] [96400] [96600] [96800] [97000] [97200] [97400] [97600] [97800] [98000] [98200] [98400] [98600] [98800] [99000] [99200] [99400] [99600] [99800] [100000] [100200] [100400] [100600] [100800] [101000] [101200] [101400] [101600] [101800] [102000] [102200] [102400] [102600] [102800] [103000] [103200] [103400] [103600] [103800] [104000] [104200] [104400] [104600] [104800] [105000] [105200] [105400] [105600] [105800] [106000] [106200] [106400] [106600] [106800] [107000] [107200] [107400] [107600] [107800] [108000] [108200] [108400] [108600] [108800] [109000] [109200] [109400] [109600] [109800] [110000] [110200] [110400] [110600] [110800] [111000] [111200] [111400] [111600] [111800] [112000] [112200] [112400] [112600] [112800] [113000] [113200] [113400] [113600] [113800] [114000] [114200] [114400] [114600] [114800] [115000] [115200] [115400] [115600] [115800] [116000] [116200] [116400] [116600] [116800] [117000] [117200] [117400] [117600] [117800] [118000] [118200] [118400] [118600] [118800] [119000] [119200] [119400] [119600] [119800] [120000] [120200] [120400] [120600] [120800] [121000] [121200] [121400] [121600] [121800] [122000] [122200] [122400] [122600] [122800] [123000] [123200] [123400] [123600] [123800] [124000] [124200] [124400] [124600] [124800] [125000] [125200] [125400] [125600] [125800] [126000] [126200] [126400] [126600] [126800] [127000] [127200] [127400] [127600] [127800] [128000] [128200] [128400] [128600] [128800] [129000] [129200] [129400] [129600] [129800] [130000] [130200] [130400] [130600] [130800] [131000] [131200] [131400] [131600] [131800] [132000] [132200] [132400] [132600] [132800] [133000] [133200] [133400] [133600] [133800] [134000] [134200] [134400] [134600] [134800] [135000] [135200] [135400] [135600] [135800] [136000] [136200] [136400] [136600] [136800] [137000] [137200] [137400] [137600] [137800] [138000] [138200] [138400] [138600] [138800] [139000] [139200] [139400] [139600] [139800] [140000] [140200] [140400] [140600] [140800] [141000] [141200] [141400] [141600] [141800] [142000] [142200] [142400] [142600] [142800] [143000] [143200] [143400] [143600] [143800] [144000] [144200] [144400] [144600] [144800] [145000] [145200] [145400] [145600] [145800] [146000] [146200] [146400] [146600] [146800] [147000] [147200] [147400] [147600] [147800] [148000] [148200] [148400] [148600] [148800] [149000] [149200] [149400] [149600] [149800] [150000] [150200] [150400] [150600] [150800] [151000] [151200] [151400] [151600] [151800] [152000] [152200] [152400] [152600] [152800] [153000] [153200] [153400] [153600] [153800] [154000] [154200] [154400] [154600] [154800] [155000] [155200] [155400] [155600] [155800] [156000] [156200] [156400] [156600] [156800] [157000] [157200] [157400] [157600] [157800] [158000] [158200] [158400] [158600] [158800] [159000] [159200] [159400] [159600] [159800] [160000] [160200] [160400] [160600] [160800] [161000] [161200] [161400] [161600] [161800] [162000] [162200] [162400] [162600] [162800] [163000] [163200] [163400] [163600] [163800] [164000] [164200] [164400] [164600]
 
  The service has been written by
Heinrich Stamerjohanns